Skip Navigation Links
NOAA logo - Click to go to the NOAA homepage
NOAA's National Weather Service
Alaska Aviation Weather Unit
  NWS logo - Click to go to the NWS homepage
Left Navbar Graphic     19 AKDT = 03 GMT

   
NOAA is celebrating 200 years of science, service, and stewardship. Visit the NOAA 200th celebration Web site to learn more.
USA.gov is the U.S. Government's official Web portal to all Federal, state and local government Web resources and services.
Facebook
NWS on Facebook

Important Change Regarding the AAWU Web Presence

 

Over the last several months, the AAWU has been working to navigate its webpages to a nationally supported server. Security, as well as other needs, have necessitated the change.  In the process, we have made an effort to enhance the functionality of our website, as well as some of our products. As of June 20, 2017, aawu.arh.noaa.gov will be discontinued. The new AAWU web address is weather.gov/aawu. It is now live and will run in-parallel with the old site until it is discontinued. Please send any feedback or questions regarding the new webpages to nws.ar.aawu.webauthors@noaa.gov.  Thank you for your patience during this time of transition.
AAWU Home :: Display TAF Add Bookmark
METAR PAOH 242156Z AUTO 09009KT 10SM FEW039 BKN049 11/04 A3024 RMK AO2
     SLP242 T01060039=

METAR PAOH 242256Z AUTO 09009KT 10SM BKN049 OVC065 11/03 A3024 RMK AO2
     SLP240 T01110033=

METAR PAOH 242356Z AUTO 09008KT 10SM FEW042 OVC050 11/04 A3023 RMK AO2
     SLP238 T01060039 10128 20106 58005=

METAR PAOH 250056Z AUTO VRB03KT 10SM OVC050 11/04 A3022 RMK AO2 SLP236
     T01060039=

METAR PAOH 250156Z AUTO 26009KT 10SM OVC040 11/04 A3022 RMK AO2 SLP234
     T01060039=

METAR PAOH 250256Z AUTO 25005KT 10SM OVC034 09/04 A3022 RMK AO2
 SLP234 T00940044 56004=


NOAA's National Weather Service
Alaska Aviation Weather Unit
6930 Sand Lake Road
Anchorage, AK 99502-1845
Disclaimer
Credits
Glossary
Privacy Policy
About Us
Career Opportunities
Contact AAWU Internet Services Site last modified: April, 17th 2012